• Join FlightAware (Why Join?)
  • Login
  • US Flag 
01:27AM EST


 

Airport Tracker/Info


-or-


 

Live Flight TrackerFlight Track Log ✈ SWA3765 ✈ 01-Nov-2013 ✈ KLAX - KSMF

Flight Track Log - Related Links

Times and Time Zones

All times are in EDT time to prevent confusion due to time zone crossing. See the SWA3765 flight status page for this flight to view local times or setup timezone preferences in your user account.

Time Position Orientation Groundspeed Altitude Reporting Facility
EDT Latitude Longitude Course Direction KTS MPH feet Rate Location/Type
10:12AM 33.9353 -118.6042 334° Northwest 270 311 7,200  Level Los Angeles Center
10:13AM 33.9764 -118.6789 304° West 291 335 9,000 840 Climbing Los Angeles Center
10:14AM 34.0489 -118.7044 344° North 289 333 9,000  Level Los Angeles Center
10:15AM 34.1147 -118.6528 33° Northeast 283 326 9,100 1,860 Climbing Los Angeles Center
10:16AM 34.2792 -118.6000 North  Level FlightAware Approximate
10:16AM 34.1964 -118.6639 354° North 295 339 12,900  Level Los Angeles Center
10:17AM 34.3726 -118.6402 334° Northwest  Level FlightAware Approximate
10:17AM 34.2811 -118.6803 351° North 306 352 16,400  Level Los Angeles Center
10:18AM 34.3717 -118.6975 351° North 325 374 20,100 3,360 Climbing Los Angeles Center
10:19AM 34.4658 -118.7150 351° North 341 392 23,400 2,640 Climbing Los Angeles Center
10:20AM 34.5856 -118.7533 345° North 374 430 25,600 2,220 Climbing Los Angeles Center
10:21AM 34.6933 -118.8083 337° Northwest 412 474 28,000 2,160 Climbing Los Angeles Center
10:22AM 34.8039 -118.8631 338° Northwest 428 493 30,100 1,980 Climbing Los Angeles Center
10:23AM 34.9175 -118.9133 340° North 437 503 32,200 1,920 Climbing Los Angeles Center
10:24AM 35.0336 -118.9664 339° North 444 511 34,100 1,920 Climbing Los Angeles Center
10:25AM 35.1547 -119.0192 340° North 459 528 36,200 1,860 Climbing Los Angeles Center
10:26AM 35.2958 -119.0819 340° North 455 524 38,000 840 Climbing Los Angeles Center
10:27AM 35.4128 -119.1342 340° North 451 519 38,000  Level Los Angeles Center
10:28AM 35.5269 -119.1872 339° North 445 512 38,000  Level Los Angeles Center
10:29AM 35.6417 -119.2383 340° North 441 507 38,000  Level Los Angeles Center
10:30AM 35.7561 -119.2906 340° North 441 507 38,000  Level Los Angeles Center
10:31AM 35.8717 -119.3447 339° North 444 511 38,000  Level Los Angeles Center
10:32AM 35.9619 -119.3844 340° North 441 507 38,000  Level Oakland Center
10:33AM 36.0697 -119.4522 333° Northwest 438 504 38,000  Level Oakland Center
10:34AM 36.1769 -119.5236 332° Northwest 439 505 38,000  Level Oakland Center
10:35AM 36.2853 -119.5939 332° Northwest 440 506 38,000  Level Oakland Center
10:36AM 36.3919 -119.6631 332° Northwest 436 502 38,000  Level Oakland Center
10:37AM 36.4983 -119.7331 332° Northwest 435 501 38,000  Level Oakland Center
10:38AM 36.6047 -119.8033 332° Northwest 434 499 38,000  Level Oakland Center
10:39AM 36.7319 -119.8869 332° Northwest 433 498 38,000 -540 Level Oakland Center
10:40AM 36.8375 -119.9592 331° Northwest 433 498 37,000 -1,680 Descending Oakland Center
10:41AM 36.9417 -120.0281 332° Northwest 426 490 34,600 -2,400 Descending Oakland Center
10:42AM 37.0458 -120.0964 332° Northwest 424 488 32,200 -2,220 Descending Oakland Center
10:43AM 37.1417 -120.1628 331° Northwest 418 481 30,100 -2,100 Descending Oakland Center
10:44AM 37.2422 -120.2258 333° Northwest 408 470 28,000 -2,100 Descending Oakland Center
10:45AM 37.3358 -120.2917 331° Northwest 392 451 25,900 -2,040 Descending Oakland Center
10:46AM 37.4500 -120.3833 327° Northwest 364 419 23,600 -1,500 Descending Northern Cal TRACON
10:47AM 37.5333 -120.4667 322° Northwest 357 411 22,600 -1,020 Descending Northern Cal TRACON
10:48AM 37.6167 -120.5333 328° Northwest 353 406 21,600 -960 Descending Northern Cal TRACON
10:49AM 37.6739 -120.5994 318° Northwest 350 403 20,800 -960 Descending Oakland Center
10:50AM 37.7503 -120.6756 322° Northwest 349 402 19,800 -1,020 Descending Oakland Center
10:51AM 37.8247 -120.7511 321° Northwest 345 397 18,800 -1,020 Descending Oakland Center
10:52AM 37.8983 -120.8269 321° Northwest 343 395 17,800 -900 Descending Oakland Center
10:53AM 37.9722 -120.9014 322° Northwest 340 391 17,000 -900 Descending Oakland Center
10:54AM 38.0450 -120.9750 321° Northwest 336 387 16,000 -960 Descending Oakland Center
10:55AM 38.1092 -121.0550 316° Northwest 328 377 14,900 -1,140 Descending Oakland Center
10:56AM 38.1667 -121.1333 313° West 317 365 14,000 -1,380 Descending Northern Cal TRACON
10:57AM 38.2167 -121.2167 307° West 314 361 12,800 -1,620 Descending Northern Cal TRACON
10:58AM 38.2833 -121.3000 316° Northwest 315 362 10,900 -1,620 Descending Northern Cal TRACON
10:59AM 38.3333 -121.3833 307° West 298 343 9,600 -1,500 Descending Northern Cal TRACON
11:00AM 38.3833 -121.4500 314° West 290 334 8,100 -1,380 Descending Northern Cal TRACON
11:01AM 38.4333 -121.5333 307° West 286 329 7,000 -1,080 Descending Northern Cal TRACON
11:02AM 38.4833 -121.5833 322° Northwest 278 320 6,100 -1,020 Descending Northern Cal TRACON
11:03AM 38.5500 -121.6333 330° Northwest 274 315 5,100 -1,140 Descending Northern Cal TRACON
11:04AM 38.5967 -121.6694 329° Northwest 272 313 4,100 -1,200 Descending Oakland Center
11:05AM 38.6653 -121.7042 338° Northwest 269 310 3,000 -540 Descending Oakland Center
11:06AM 38.7331 -121.7086 357° North 251 289 3,000 -120 Level Oakland Center
11:07AM 38.7903 -121.6983 North 221 254 2,800 -660 Descending Oakland Center
11:08AM 38.8053 -121.6400 72° East 186 214 1,700 -660 Descending Oakland Center
11:09AM 38.7822 -121.6011 127° Southeast 164 189 1,500 -540 Descending Oakland Center
11:10AM 38.7333 -121.6000 179° South 147 169 600 -900 Descending Northern Cal TRACON